Holly Hill, Florida
Current Conditions -  °F | °C
As of 7:53 PM on Sunday 23 Nov 2014 (Local Time) from KDAB Reporting Station
Broken Clouds Broken Clouds  
Wind Chill: 24°   Ceiling: 4000
Heat Index: 24°   Visibility: 10mi
Dew Point: 23°   Wind: 5mph
Humidity: 94%   Direction: 180°S
Pressure: 29.92"   Gusts: NA
Location:  29.25°N, 81.04°W
Report Text: KDAB 240053Z 18004KT 10SM SCT026 BKN040 BKN060 24/23 A2992 RMK AO2 RAB35E52 SLP131 OCNL LTGIC DSNT E CB DSNT E P0001 T02390228
Loading
Personal Weather Stations






























Interactive Weather Map New forecast layout! Learn more

10-Day Weather Forecast

Advertisements
Track Severe Weather on mobile